sensor_id;sensor_type;location;lat;lon;timestamp;temperature;humidity
4904;DHT22;2467;48.142;11.616;2024-03-02T00:00:25;9.40;99.90
4904;DHT22;2467;48.142;11.616;2024-03-02T00:00:58;9.40;99.90
4904;DHT22;2467;48.142;11.616;2024-03-02T00:01:33;9.40;99.90
4904;DHT22;2467;48.142;11.616;2024-03-02T00:02:06;9.40;99.90
4904;DHT22;2467;48.142;11.616;2024-03-02T00:02:40;9.40;99.90
4904;DHT22;2467;48.142;11.616;2024-03-02T00:03:12;9.30;99.90
4904;DHT22;2467;48.142;11.616;2024-03-02T00:03:46;9.30;99.90
4904;DHT22;2467;48.142;11.616;2024-03-02T00:04:18;9.30;99.90
4904;DHT22;2467;48.142;11.616;2024-03-02T00:04:50;9.50;99.90
4904;DHT22;2467;48.142;11.616;2024-03-02T00:05:23;9.30;99.90
4904;DHT22;2467;48.142;11.616;2024-03-02T00:05:55;9.30;99.90
4904;DHT22;2467;48.142;11.616;2024-03-02T00:06:27;9.30;99.90
4904;DHT22;2467;48.142;11.616;2024-03-02T00:06:59;9.30;99.90
4904;DHT22;2467;48.142;11.616;2024-03-02T00:07:32;9.30;99.90
4904;DHT22;2467;48.142;11.616;2024-03-02T00:08:05;9.30;99.90
4904;DHT22;2467;48.142;11.616;2024-03-02T00:08:38;9.30;99.90
4904;DHT22;2467;48.142;11.616;2024-03-02T00:09:11;9.40;99.90
4904;DHT22;2467;48.142;11.616;2024-03-02T00:09:44;9.40;99.90
4904;DHT22;2467;48.142;11.616;2024-03-02T00:10:19;9.30;99.90
4904;DHT22;2467;48.142;11.616;2024-03-02T00:10:52;9.30;99.90
4904;DHT22;2467;48.142;11.616;2024-03-02T00:11:28;9.30;99.90
4904;DHT22;2467;48.142;11.616;2024-03-02T00:12:02;9.30;99.90
4904;DHT22;2467;48.142;11.616;2024-03-02T00:12:34;9.20;99.90
4904;DHT22;2467;48.142;11.616;2024-03-02T00:13:06;9.20;99.90
4904;DHT22;2467;48.142;11.616;2024-03-02T00:13:38;9.20;99.90
4904;DHT22;2467;48.142;11.616;2024-03-02T00:14:12;9.20;99.90
4904;DHT22;2467;48.142;11.616;2024-03-02T00:14:44;9.20;99.90
4904;DHT22;2467;48.142;11.616;2024-03-02T00:15:35;9.20;99.90
4904;DHT22;2467;48.142;11.616;2024-03-02T00:16:11;9.20;99.90
4904;DHT22;2467;48.142;11.616;2024-03-02T00:16:46;9.10;99.90
4904;DHT22;2467;48.142;11.616;2024-03-02T00:17:24;9.10;99.90
4904;DHT22;2467;48.142;11.616;2024-03-02T00:17:56;9.10;99.90
4904;DHT22;2467;48.142;11.616;2024-03-02T00:18:31;9.10;99.90
4904;DHT22;2467;48.142;11.616;2024-03-02T00:19:05;9.10;99.90
4904;DHT22;2467;48.142;11.616;2024-03-02T00:19:39;9.10;99.90
4904;DHT22;2467;48.142;11.616;2024-03-02T00:20:15;9.10;99.90
4904;DHT22;2467;48.142;11.616;2024-03-02T00:20:53;9.20;99.90
4904;DHT22;2467;48.142;11.616;2024-03-02T00:21:27;9.10;99.90
4904;DHT22;2467;48.142;11.616;2024-03-02T00:22:01;9.10;99.90
4904;DHT22;2467;48.142;11.616;2024-03-02T00:22:35;9.10;99.90
4904;DHT22;2467;48.142;11.616;2024-03-02T00:23:09;9.10;99.90
4904;DHT22;2467;48.142;11.616;2024-03-02T00:23:42;9.10;99.90
4904;DHT22;2467;48.142;11.616;2024-03-02T00:24:19;9.10;99.90
4904;DHT22;2467;48.142;11.616;2024-03-02T00:24:54;9.10;99.90
4904;DHT22;2467;48.142;11.616;2024-03-02T00:25:26;9.10;99.90
4904;DHT22;2467;48.142;11.616;2024-03-02T00:25:58;9.10;99.90
4904;DHT22;2467;48.142;11.616;2024-03-02T00:26:32;9.10;99.90
4904;DHT22;2467;48.142;11.616;2024-03-02T00:27:06;9.10;99.90
4904;DHT22;2467;48.142;11.616;2024-03-02T00:27:39;9.10;99.90
4904;DHT22;2467;48.142;11.616;2024-03-02T00:28:16;9.10;99.90
4904;DHT22;2467;48.142;11.616;2024-03-02T00:28:49;9.10;99.90
4904;DHT22;2467;48.142;11.616;2024-03-02T00:29:23;9.10;99.90
4904;DHT22;2467;48.142;11.616;2024-03-02T00:29:56;9.10;99.90
4904;DHT22;2467;48.142;11.616;2024-03-02T00:30:46;9.10;99.90
4904;DHT22;2467;48.142;11.616;2024-03-02T00:31:22;9.10;99.90
4904;DHT22;2467;48.142;11.616;2024-03-02T00:31:58;9.10;99.90
4904;DHT22;2467;48.142;11.616;2024-03-02T00:32:30;9.10;99.90
4904;DHT22;2467;48.142;11.616;2024-03-02T00:33:06;9.10;99.90
4904;DHT22;2467;48.142;11.616;2024-03-02T00:33:41;9.10;99.90
4904;DHT22;2467;48.142;11.616;2024-03-02T00:34:14;9.00;99.90
4904;DHT22;2467;48.142;11.616;2024-03-02T00:34:48;9.10;99.90
4904;DHT22;2467;48.142;11.616;2024-03-02T00:35:22;9.10;99.90
4904;DHT22;2467;48.142;11.616;2024-03-02T00:35:55;9.10;99.90
4904;DHT22;2467;48.142;11.616;2024-03-02T00:36:28;9.10;99.90
4904;DHT22;2467;48.142;11.616;2024-03-02T00:37:00;9.10;99.90
4904;DHT22;2467;48.142;11.616;2024-03-02T00:37:33;9.10;99.90
4904;DHT22;2467;48.142;11.616;2024-03-02T00:38:06;9.10;99.90
4904;DHT22;2467;48.142;11.616;2024-03-02T00:38:44;9.10;99.90
4904;DHT22;2467;48.142;11.616;2024-03-02T00:39:18;9.10;99.90
4904;DHT22;2467;48.142;11.616;2024-03-02T00:39:51;9.10;99.90
4904;DHT22;2467;48.142;11.616;2024-03-02T00:40:28;9.10;99.90
4904;DHT22;2467;48.142;11.616;2024-03-02T00:41:04;9.10;99.90
4904;DHT22;2467;48.142;11.616;2024-03-02T00:41:41;9.10;99.90
4904;DHT22;2467;48.142;11.616;2024-03-02T00:42:15;9.10;99.90
4904;DHT22;2467;48.142;11.616;2024-03-02T00:42:47;9.10;99.90
4904;DHT22;2467;48.142;11.616;2024-03-02T00:43:41;9.10;99.90
4904;DHT22;2467;48.142;11.616;2024-03-02T00:44:20;9.10;99.90
4904;DHT22;2467;48.142;11.616;2024-03-02T00:44:56;9.10;99.90
4904;DHT22;2467;48.142;11.616;2024-03-02T00:45:28;9.00;99.90
4904;DHT22;2467;48.142;11.616;2024-03-02T00:46:01;9.00;99.90
4904;DHT22;2467;48.142;11.616;2024-03-02T00:46:34;9.10;99.90
4904;DHT22;2467;48.142;11.616;2024-03-02T00:47:09;9.10;99.90
4904;DHT22;2467;48.142;11.616;2024-03-02T00:47:41;9.10;99.90
4904;DHT22;2467;48.142;11.616;2024-03-02T00:48:15;9.10;99.90
4904;DHT22;2467;48.142;11.616;2024-03-02T00:48:54;9.10;99.90
4904;DHT22;2467;48.142;11.616;2024-03-02T00:49:27;9.10;99.90
4904;DHT22;2467;48.142;11.616;2024-03-02T00:50:00;9.10;99.90
4904;DHT22;2467;48.142;11.616;2024-03-02T00:50:36;9.10;99.90
4904;DHT22;2467;48.142;11.616;2024-03-02T00:51:08;9.10;99.90
4904;DHT22;2467;48.142;11.616;2024-03-02T00:51:40;9.10;99.90
4904;DHT22;2467;48.142;11.616;2024-03-02T00:52:14;9.10;99.90
4904;DHT22;2467;48.142;11.616;2024-03-02T00:52:46;9.10;99.90
4904;DHT22;2467;48.142;11.616;2024-03-02T00:53:23;9.10;99.90
4904;DHT22;2467;48.142;11.616;2024-03-02T00:53:59;9.10;99.90
4904;DHT22;2467;48.142;11.616;2024-03-02T00:54:32;9.10;99.90
4904;DHT22;2467;48.142;11.616;2024-03-02T00:55:06;9.10;99.90
4904;DHT22;2467;48.142;11.616;2024-03-02T00:55:39;9.10;99.90
4904;DHT22;2467;48.142;11.616;2024-03-02T00:56:16;9.10;99.90
4904;DHT22;2467;48.142;11.616;2024-03-02T00:56:49;9.10;99.90
4904;DHT22;2467;48.142;11.616;2024-03-02T00:57:21;9.10;99.90
4904;DHT22;2467;48.142;11.616;2024-03-02T00:57:54;9.10;99.90
4904;DHT22;2467;48.142;11.616;2024-03-02T00:58:26;9.10;99.90
4904;DHT22;2467;48.142;11.616;2024-03-02T00:58:59;9.10;99.90
4904;DHT22;2467;48.142;11.616;2024-03-02T00:59:31;9.10;99.90
4904;DHT22;2467;48.142;11.616;2024-03-02T01:00:06;9.20;99.90
4904;DHT22;2467;48.142;11.616;2024-03-02T01:00:43;9.10;99.90
4904;DHT22;2467;48.142;11.616;2024-03-02T01:01:15;9.10;99.90
4904;DHT22;2467;48.142;11.616;2024-03-02T01:01:48;9.10;99.90
4904;DHT22;2467;48.142;11.616;2024-03-02T01:02:23;9.10;99.90
4904;DHT22;2467;48.142;11.616;2024-03-02T01:02:55;9.10;99.90
4904;DHT22;2467;48.142;11.616;2024-03-02T01:03:27;9.20;99.90
4904;DHT22;2467;48.142;11.616;2024-03-02T01:03:58;9.20;99.90
4904;DHT22;2467;48.142;11.616;2024-03-02T01:04:32;9.20;99.90
4904;DHT22;2467;48.142;11.616;2024-03-02T01:05:04;9.20;99.90
4904;DHT22;2467;48.142;11.616;2024-03-02T01:05:39;9.20;99.90
4904;DHT22;2467;48.142;11.616;2024-03-02T01:06:12;9.20;99.90
4904;DHT22;2467;48.142;11.616;2024-03-02T01:06:45;9.20;99.90
4904;DHT22;2467;48.142;11.616;2024-03-02T01:07:18;9.10;99.90
4904;DHT22;2467;48.142;11.616;2024-03-02T01:07:50;9.10;99.90
4904;DHT22;2467;48.142;11.616;2024-03-02T01:08:22;9.10;99.90
4904;DHT22;2467;48.142;11.616;2024-03-02T01:08:55;9.10;99.90
4904;DHT22;2467;48.142;11.616;2024-03-02T01:09:27;9.10;99.90
4904;DHT22;2467;48.142;11.616;2024-03-02T01:09:59;9.10;99.90
4904;DHT22;2467;48.142;11.616;2024-03-02T01:10:32;9.10;99.90
4904;DHT22;2467;48.142;11.616;2024-03-02T01:11:05;9.10;99.90
4904;DHT22;2467;48.142;11.616;2024-03-02T01:11:37;9.10;99.90
4904;DHT22;2467;48.142;11.616;2024-03-02T01:12:10;9.10;99.90
4904;DHT22;2467;48.142;11.616;2024-03-02T01:12:42;9.10;99.90
4904;DHT22;2467;48.142;11.616;2024-03-02T01:13:14;9.10;99.90
4904;DHT22;2467;48.142;11.616;2024-03-02T01:13:46;9.10;99.90
4904;DHT22;2467;48.142;11.616;2024-03-02T01:14:18;9.10;99.90
4904;DHT22;2467;48.142;11.616;2024-03-02T01:14:51;9.10;99.90
4904;DHT22;2467;48.142;11.616;2024-03-02T01:15:23;9.10;99.90
4904;DHT22;2467;48.142;11.616;2024-03-02T01:15:55;9.10;99.90
4904;DHT22;2467;48.142;11.616;2024-03-02T01:16:28;9.10;99.90
4904;DHT22;2467;48.142;11.616;2024-03-02T01:17:01;9.10;99.90
4904;DHT22;2467;48.142;11.616;2024-03-02T01:17:36;9.10;99.90
4904;DHT22;2467;48.142;11.616;2024-03-02T01:18:09;9.10;99.90
4904;DHT22;2467;48.142;11.616;2024-03-02T01:18:42;9.10;99.90
4904;DHT22;2467;48.142;11.616;2024-03-02T01:19:15;9.10;99.90
4904;DHT22;2467;48.142;11.616;2024-03-02T01:19:47;9.10;99.90
4904;DHT22;2467;48.142;11.616;2024-03-02T01:20:19;9.10;99.90
4904;DHT22;2467;48.142;11.616;2024-03-02T01:20:52;9.10;99.90
4904;DHT22;2467;48.142;11.616;2024-03-02T01:21:26;9.10;99.90
4904;DHT22;2467;48.142;11.616;2024-03-02T01:21:59;9.20;99.90
4904;DHT22;2467;48.142;11.616;2024-03-02T01:22:31;9.00;99.90
4904;DHT22;2467;48.142;11.616;2024-03-02T01:23:03;9.00;99.90
4904;DHT22;2467;48.142;11.616;2024-03-02T01:23:36;9.00;99.90
4904;DHT22;2467;48.142;11.616;2024-03-02T01:24:08;9.00;99.90
4904;DHT22;2467;48.142;11.616;2024-03-02T01:24:40;9.00;99.90
4904;DHT22;2467;48.142;11.616;2024-03-02T01:25:12;9.00;99.90
4904;DHT22;2467;48.142;11.616;2024-03-02T01:25:46;9.00;99.90
4904;DHT22;2467;48.142;11.616;2024-03-02T01:26:18;9.00;99.90
4904;DHT22;2467;48.142;11.616;2024-03-02T01:26:52;9.00;99.90
4904;DHT22;2467;48.142;11.616;2024-03-02T01:27:25;9.00;99.90
4904;DHT22;2467;48.142;11.616;2024-03-02T01:27:58;9.00;99.90
4904;DHT22;2467;48.142;11.616;2024-03-02T01:28:30;9.00;99.90
4904;DHT22;2467;48.142;11.616;2024-03-02T01:29:02;9.00;99.90
4904;DHT22;2467;48.142;11.616;2024-03-02T01:29:35;9.00;99.90
4904;DHT22;2467;48.142;11.616;2024-03-02T01:30:08;9.00;99.90
4904;DHT22;2467;48.142;11.616;2024-03-02T01:30:41;9.00;99.90
4904;DHT22;2467;48.142;11.616;2024-03-02T01:31:13;9.00;99.90
4904;DHT22;2467;48.142;11.616;2024-03-02T01:31:46;9.00;99.90
4904;DHT22;2467;48.142;11.616;2024-03-02T01:32:18;9.00;99.90
4904;DHT22;2467;48.142;11.616;2024-03-02T01:32:51;9.00;99.90
4904;DHT22;2467;48.142;11.616;2024-03-02T01:33:23;9.00;99.90
4904;DHT22;2467;48.142;11.616;2024-03-02T01:33:56;9.00;99.90
4904;DHT22;2467;48.142;11.616;2024-03-02T01:34:28;9.00;99.90
4904;DHT22;2467;48.142;11.616;2024-03-02T01:35:00;9.00;99.90
4904;DHT22;2467;48.142;11.616;2024-03-02T01:35:32;9.00;99.90
4904;DHT22;2467;48.142;11.616;2024-03-02T01:36:06;9.00;99.90
4904;DHT22;2467;48.142;11.616;2024-03-02T01:36:40;9.00;99.90
4904;DHT22;2467;48.142;11.616;2024-03-02T01:37:12;9.00;99.90
4904;DHT22;2467;48.142;11.616;2024-03-02T01:37:44;9.10;99.90
4904;DHT22;2467;48.142;11.616;2024-03-02T01:38:16;9.10;99.90
4904;DHT22;2467;48.142;11.616;2024-03-02T01:38:49;9.10;99.90
4904;DHT22;2467;48.142;11.616;2024-03-02T01:39:20;9.10;99.90
4904;DHT22;2467;48.142;11.616;2024-03-02T01:39:52;9.10;99.90
4904;DHT22;2467;48.142;11.616;2024-03-02T01:40:25;9.10;99.90
4904;DHT22;2467;48.142;11.616;2024-03-02T01:40:58;9.10;99.90
4904;DHT22;2467;48.142;11.616;2024-03-02T01:41:31;9.00;99.90
4904;DHT22;2467;48.142;11.616;2024-03-02T01:42:03;9.00;99.90
4904;DHT22;2467;48.142;11.616;2024-03-02T01:42:36;9.10;99.90
4904;DHT22;2467;48.142;11.616;2024-03-02T01:43:08;9.10;99.90
4904;DHT22;2467;48.142;11.616;2024-03-02T01:43:41;9.10;99.90
4904;DHT22;2467;48.142;11.616;2024-03-02T01:44:13;9.10;99.90
4904;DHT22;2467;48.142;11.616;2024-03-02T01:44:45;9.00;99.90
4904;DHT22;2467;48.142;11.616;2024-03-02T01:45:17;9.10;99.90
4904;DHT22;2467;48.142;11.616;2024-03-02T01:45:50;9.10;99.90
4904;DHT22;2467;48.142;11.616;2024-03-02T01:46:22;9.10;99.90
4904;DHT22;2467;48.142;11.616;2024-03-02T01:46:54;9.00;99.90
4904;DHT22;2467;48.142;11.616;2024-03-02T01:47:27;9.00;99.90
4904;DHT22;2467;48.142;11.616;2024-03-02T01:48:01;9.00;99.90
4904;DHT22;2467;48.142;11.616;2024-03-02T01:48:33;9.00;99.90
4904;DHT22;2467;48.142;11.616;2024-03-02T01:49:06;9.00;99.90
4904;DHT22;2467;48.142;11.616;2024-03-02T01:49:39;9.10;99.90
4904;DHT22;2467;48.142;11.616;2024-03-02T01:50:12;9.00;99.90
4904;DHT22;2467;48.142;11.616;2024-03-02T01:50:45;9.00;99.90
4904;DHT22;2467;48.142;11.616;2024-03-02T01:51:17;9.00;99.90
4904;DHT22;2467;48.142;11.616;2024-03-02T01:51:50;9.00;99.90
4904;DHT22;2467;48.142;11.616;2024-03-02T01:52:22;9.10;99.90
4904;DHT22;2467;48.142;11.616;2024-03-02T01:52:55;9.00;99.90
4904;DHT22;2467;48.142;11.616;2024-03-02T01:53:27;9.10;99.90
4904;DHT22;2467;48.142;11.616;2024-03-02T01:54:00;9.10;99.90
4904;DHT22;2467;48.142;11.616;2024-03-02T01:54:32;9.10;99.90
4904;DHT22;2467;48.142;11.616;2024-03-02T01:55:05;9.00;99.90
4904;DHT22;2467;48.142;11.616;2024-03-02T01:55:37;9.10;99.90
4904;DHT22;2467;48.142;11.616;2024-03-02T01:56:10;9.20;99.90
4904;DHT22;2467;48.142;11.616;2024-03-02T01:56:43;9.10;99.90
4904;DHT22;2467;48.142;11.616;2024-03-02T01:57:15;9.10;99.90
4904;DHT22;2467;48.142;11.616;2024-03-02T01:57:47;9.20;99.90
4904;DHT22;2467;48.142;11.616;2024-03-02T01:58:20;9.10;99.90
4904;DHT22;2467;48.142;11.616;2024-03-02T01:58:53;9.10;99.90
4904;DHT22;2467;48.142;11.616;2024-03-02T01:59:25;9.10;99.90
4904;DHT22;2467;48.142;11.616;2024-03-02T01:59:57;9.10;99.90
4904;DHT22;2467;48.142;11.616;2024-03-02T02:00:29;9.10;99.90
4904;DHT22;2467;48.142;11.616;2024-03-02T02:01:04;9.10;99.90
4904;DHT22;2467;48.142;11.616;2024-03-02T02:01:36;9.10;99.90
4904;DHT22;2467;48.142;11.616;2024-03-02T02:02:08;9.00;99.90
4904;DHT22;2467;48.142;11.616;2024-03-02T02:02:40;9.10;99.90
4904;DHT22;2467;48.142;11.616;2024-03-02T02:03:15;9.10;99.90
4904;DHT22;2467;48.142;11.616;2024-03-02T02:03:47;9.10;99.90
4904;DHT22;2467;48.142;11.616;2024-03-02T02:04:19;9.10;99.90
4904;DHT22;2467;48.142;11.616;2024-03-02T02:04:53;9.10;99.90
4904;DHT22;2467;48.142;11.616;2024-03-02T02:05:26;9.10;99.90
4904;DHT22;2467;48.142;11.616;2024-03-02T02:05:58;9.10;99.90
4904;DHT22;2467;48.142;11.616;2024-03-02T02:06:30;9.10;99.90
4904;DHT22;2467;48.142;11.616;2024-03-02T02:07:04;9.10;99.90
4904;DHT22;2467;48.142;11.616;2024-03-02T02:07:37;9.00;99.90
4904;DHT22;2467;48.142;11.616;2024-03-02T02:08:09;9.00;99.90
4904;DHT22;2467;48.142;11.616;2024-03-02T02:08:41;9.00;99.90
4904;DHT22;2467;48.142;11.616;2024-03-02T02:09:14;9.00;99.90
4904;DHT22;2467;48.142;11.616;2024-03-02T02:09:46;9.00;99.90
4904;DHT22;2467;48.142;11.616;2024-03-02T02:10:18;9.00;99.90
4904;DHT22;2467;48.142;11.616;2024-03-02T02:10:50;9.10;99.90
4904;DHT22;2467;48.142;11.616;2024-03-02T02:11:22;9.00;99.90
4904;DHT22;2467;48.142;11.616;2024-03-02T02:11:56;9.00;99.90
4904;DHT22;2467;48.142;11.616;2024-03-02T02:12:28;9.00;99.90
4904;DHT22;2467;48.142;11.616;2024-03-02T02:13:00;9.00;99.90
4904;DHT22;2467;48.142;11.616;2024-03-02T02:13:32;9.00;99.90
4904;DHT22;2467;48.142;11.616;2024-03-02T02:14:06;9.00;99.90
4904;DHT22;2467;48.142;11.616;2024-03-02T02:14:38;9.00;99.90
4904;DHT22;2467;48.142;11.616;2024-03-02T02:15:25;9.00;99.90
4904;DHT22;2467;48.142;11.616;2024-03-02T02:16:04;9.00;99.90
4904;DHT22;2467;48.142;11.616;2024-03-02T02:16:37;8.90;99.90
4904;DHT22;2467;48.142;11.616;2024-03-02T02:17:09;8.90;99.90
4904;DHT22;2467;48.142;11.616;2024-03-02T02:17:41;8.90;99.90
4904;DHT22;2467;48.142;11.616;2024-03-02T02:18:15;8.90;99.90
4904;DHT22;2467;48.142;11.616;2024-03-02T02:18:48;8.90;99.90
4904;DHT22;2467;48.142;11.616;2024-03-02T02:19:20;8.90;99.90
4904;DHT22;2467;48.142;11.616;2024-03-02T02:19:52;8.90;99.90
4904;DHT22;2467;48.142;11.616;2024-03-02T02:20:24;8.90;99.90
4904;DHT22;2467;48.142;11.616;2024-03-02T02:20:58;8.90;99.90
4904;DHT22;2467;48.142;11.616;2024-03-02T02:21:31;8.90;99.90
4904;DHT22;2467;48.142;11.616;2024-03-02T02:22:03;8.80;99.90
4904;DHT22;2467;48.142;11.616;2024-03-02T02:22:35;8.90;99.90
4904;DHT22;2467;48.142;11.616;2024-03-02T02:23:07;8.90;99.90
4904;DHT22;2467;48.142;11.616;2024-03-02T02:23:41;8.90;99.90
4904;DHT22;2467;48.142;11.616;2024-03-02T02:24:18;8.90;99.90
4904;DHT22;2467;48.142;11.616;2024-03-02T02:24:50;8.90;99.90
4904;DHT22;2467;48.142;11.616;2024-03-02T02:25:22;8.90;99.90
4904;DHT22;2467;48.142;11.616;2024-03-02T02:25:55;8.90;99.90
4904;DHT22;2467;48.142;11.616;2024-03-02T02:26:27;8.90;99.90
4904;DHT22;2467;48.142;11.616;2024-03-02T02:26:59;8.90;99.90
4904;DHT22;2467;48.142;11.616;2024-03-02T02:27:32;8.90;99.90
4904;DHT22;2467;48.142;11.616;2024-03-02T02:28:04;8.90;99.90
4904;DHT22;2467;48.142;11.616;2024-03-02T02:28:36;8.90;99.90
4904;DHT22;2467;48.142;11.616;2024-03-02T02:29:08;8.90;99.90
4904;DHT22;2467;48.142;11.616;2024-03-02T02:29:41;8.80;99.90
4904;DHT22;2467;48.142;11.616;2024-03-02T02:30:13;8.80;99.90
4904;DHT22;2467;48.142;11.616;2024-03-02T02:30:49;8.80;99.90
4904;DHT22;2467;48.142;11.616;2024-03-02T02:31:22;8.70;99.90
4904;DHT22;2467;48.142;11.616;2024-03-02T02:31:54;8.70;99.90
4904;DHT22;2467;48.142;11.616;2024-03-02T02:32:26;8.70;99.90
4904;DHT22;2467;48.142;11.616;2024-03-02T02:32:59;8.70;99.90
4904;DHT22;2467;48.142;11.616;2024-03-02T02:33:32;8.70;99.90
4904;DHT22;2467;48.142;11.616;2024-03-02T02:34:04;8.70;99.90
4904;DHT22;2467;48.142;11.616;2024-03-02T02:34:36;8.70;99.90
4904;DHT22;2467;48.142;11.616;2024-03-02T02:35:08;8.70;99.90
4904;DHT22;2467;48.142;11.616;2024-03-02T02:35:40;8.70;99.90
4904;DHT22;2467;48.142;11.616;2024-03-02T02:36:13;8.70;99.90
4904;DHT22;2467;48.142;11.616;2024-03-02T02:36:46;8.70;99.90
4904;DHT22;2467;48.142;11.616;2024-03-02T02:37:19;8.70;99.90
4904;DHT22;2467;48.142;11.616;2024-03-02T02:37:51;8.70;99.90
4904;DHT22;2467;48.142;11.616;2024-03-02T02:38:24;8.70;99.90
4904;DHT22;2467;48.142;11.616;2024-03-02T02:38:59;8.70;99.90
4904;DHT22;2467;48.142;11.616;2024-03-02T02:39:31;8.80;99.90
4904;DHT22;2467;48.142;11.616;2024-03-02T02:40:04;8.80;99.90
4904;DHT22;2467;48.142;11.616;2024-03-02T02:40:38;8.80;99.90
4904;DHT22;2467;48.142;11.616;2024-03-02T02:41:10;8.80;99.90
4904;DHT22;2467;48.142;11.616;2024-03-02T02:41:42;8.80;99.90
4904;DHT22;2467;48.142;11.616;2024-03-02T02:42:14;8.80;99.90
4904;DHT22;2467;48.142;11.616;2024-03-02T02:42:47;8.80;99.90
4904;DHT22;2467;48.142;11.616;2024-03-02T02:43:19;8.80;99.90
4904;DHT22;2467;48.142;11.616;2024-03-02T02:43:51;8.80;99.90
4904;DHT22;2467;48.142;11.616;2024-03-02T02:44:23;8.80;99.90
4904;DHT22;2467;48.142;11.616;2024-03-02T02:44:56;8.70;99.90
4904;DHT22;2467;48.142;11.616;2024-03-02T02:45:28;8.70;99.90
4904;DHT22;2467;48.142;11.616;2024-03-02T02:46:01;8.80;99.90
4904;DHT22;2467;48.142;11.616;2024-03-02T02:46:33;8.80;99.90
4904;DHT22;2467;48.142;11.616;2024-03-02T02:47:05;8.80;99.90
4904;DHT22;2467;48.142;11.616;2024-03-02T02:47:38;8.70;99.90
4904;DHT22;2467;48.142;11.616;2024-03-02T02:48:10;8.80;99.90
4904;DHT22;2467;48.142;11.616;2024-03-02T02:48:42;8.80;99.90
4904;DHT22;2467;48.142;11.616;2024-03-02T02:49:14;8.80;99.90
4904;DHT22;2467;48.142;11.616;2024-03-02T02:49:46;8.80;99.90
4904;DHT22;2467;48.142;11.616;2024-03-02T02:50:19;8.80;99.90
4904;DHT22;2467;48.142;11.616;2024-03-02T02:50:51;8.80;99.90
4904;DHT22;2467;48.142;11.616;2024-03-02T02:51:23;8.80;99.90
4904;DHT22;2467;48.142;11.616;2024-03-02T02:51:58;8.90;99.90
4904;DHT22;2467;48.142;11.616;2024-03-02T02:52:31;8.90;99.90
4904;DHT22;2467;48.142;11.616;2024-03-02T02:53:05;8.90;99.90
4904;DHT22;2467;48.142;11.616;2024-03-02T02:53:37;8.90;99.90
4904;DHT22;2467;48.142;11.616;2024-03-02T02:54:12;8.90;99.90
4904;DHT22;2467;48.142;11.616;2024-03-02T02:54:45;8.80;99.90
4904;DHT22;2467;48.142;11.616;2024-03-02T02:55:17;8.80;99.90
4904;DHT22;2467;48.142;11.616;2024-03-02T02:55:49;8.80;99.90
4904;DHT22;2467;48.142;11.616;2024-03-02T02:56:21;8.80;99.90
4904;DHT22;2467;48.142;11.616;2024-03-02T02:56:53;8.80;99.90
4904;DHT22;2467;48.142;11.616;2024-03-02T02:57:25;8.90;99.90
4904;DHT22;2467;48.142;11.616;2024-03-02T02:57:57;8.80;99.90
4904;DHT22;2467;48.142;11.616;2024-03-02T02:58:31;8.80;99.90
4904;DHT22;2467;48.142;11.616;2024-03-02T02:59:03;8.80;99.90
4904;DHT22;2467;48.142;11.616;2024-03-02T02:59:35;8.80;99.90
4904;DHT22;2467;48.142;11.616;2024-03-02T03:00:09;8.80;99.90
4904;DHT22;2467;48.142;11.616;2024-03-02T03:00:46;8.80;99.90
4904;DHT22;2467;48.142;11.616;2024-03-02T03:01:18;8.80;99.90
4904;DHT22;2467;48.142;11.616;2024-03-02T03:01:51;8.80;99.90
4904;DHT22;2467;48.142;11.616;2024-03-02T03:02:23;8.80;99.90
4904;DHT22;2467;48.142;11.616;2024-03-02T03:02:55;8.80;99.90
4904;DHT22;2467;48.142;11.616;2024-03-02T03:03:28;8.80;99.90
4904;DHT22;2467;48.142;11.616;2024-03-02T03:04:00;8.90;99.90
4904;DHT22;2467;48.142;11.616;2024-03-02T03:04:33;8.80;99.90
4904;DHT22;2467;48.142;11.616;2024-03-02T03:05:05;8.80;99.90
4904;DHT22;2467;48.142;11.616;2024-03-02T03:05:38;8.80;99.90
4904;DHT22;2467;48.142;11.616;2024-03-02T03:06:11;8.80;99.90
4904;DHT22;2467;48.142;11.616;2024-03-02T03:06:43;8.80;99.90
4904;DHT22;2467;48.142;11.616;2024-03-02T03:07:17;8.80;99.90
4904;DHT22;2467;48.142;11.616;2024-03-02T03:07:49;8.90;99.90
4904;DHT22;2467;48.142;11.616;2024-03-02T03:08:22;8.80;99.90
4904;DHT22;2467;48.142;11.616;2024-03-02T03:08:55;8.80;99.90
4904;DHT22;2467;48.142;11.616;2024-03-02T03:09:27;8.80;99.90
4904;DHT22;2467;48.142;11.616;2024-03-02T03:09:59;8.90;99.90
4904;DHT22;2467;48.142;11.616;2024-03-02T03:10:31;8.90;99.90
4904;DHT22;2467;48.142;11.616;2024-03-02T03:11:05;8.90;99.90
4904;DHT22;2467;48.142;11.616;2024-03-02T03:11:37;8.90;99.90
4904;DHT22;2467;48.142;11.616;2024-03-02T03:12:09;8.90;99.90
4904;DHT22;2467;48.142;11.616;2024-03-02T03:12:41;8.90;99.90
4904;DHT22;2467;48.142;11.616;2024-03-02T03:13:16;8.90;99.90
4904;DHT22;2467;48.142;11.616;2024-03-02T03:13:48;8.90;99.90
4904;DHT22;2467;48.142;11.616;2024-03-02T03:14:20;8.90;99.90
4904;DHT22;2467;48.142;11.616;2024-03-02T03:14:52;8.90;99.90
4904;DHT22;2467;48.142;11.616;2024-03-02T03:15:25;8.90;99.90
4904;DHT22;2467;48.142;11.616;2024-03-02T03:15:57;8.90;99.90
4904;DHT22;2467;48.142;11.616;2024-03-02T03:16:29;8.90;99.90
4904;DHT22;2467;48.142;11.616;2024-03-02T03:17:02;8.90;99.90
4904;DHT22;2467;48.142;11.616;2024-03-02T03:17:34;8.90;99.90
4904;DHT22;2467;48.142;11.616;2024-03-02T03:18:07;8.90;99.90
4904;DHT22;2467;48.142;11.616;2024-03-02T03:18:39;8.90;99.90
4904;DHT22;2467;48.142;11.616;2024-03-02T03:19:12;8.90;99.90
4904;DHT22;2467;48.142;11.616;2024-03-02T03:19:44;8.90;99.90
4904;DHT22;2467;48.142;11.616;2024-03-02T03:20:16;8.90;99.90
4904;DHT22;2467;48.142;11.616;2024-03-02T03:20:48;8.90;99.90
4904;DHT22;2467;48.142;11.616;2024-03-02T03:21:21;8.80;99.90
4904;DHT22;2467;48.142;11.616;2024-03-02T03:21:55;8.80;99.90
4904;DHT22;2467;48.142;11.616;2024-03-02T03:22:28;8.80;99.90
4904;DHT22;2467;48.142;11.616;2024-03-02T03:23:00;8.70;99.90
4904;DHT22;2467;48.142;11.616;2024-03-02T03:23:32;8.70;99.90
4904;DHT22;2467;48.142;11.616;2024-03-02T03:24:05;8.70;99.90
4904;DHT22;2467;48.142;11.616;2024-03-02T03:24:37;8.70;99.90
4904;DHT22;2467;48.142;11.616;2024-03-02T03:25:09;8.70;99.90
4904;DHT22;2467;48.142;11.616;2024-03-02T03:25:41;8.70;99.90
4904;DHT22;2467;48.142;11.616;2024-03-02T03:26:14;8.60;99.90
4904;DHT22;2467;48.142;11.616;2024-03-02T03:26:46;8.60;99.90
4904;DHT22;2467;48.142;11.616;2024-03-02T03:27:18;8.70;99.90
4904;DHT22;2467;48.142;11.616;2024-03-02T03:27:51;8.70;99.90
4904;DHT22;2467;48.142;11.616;2024-03-02T03:28:24;8.70;99.90
4904;DHT22;2467;48.142;11.616;2024-03-02T03:28:57;8.70;99.90
4904;DHT22;2467;48.142;11.616;2024-03-02T03:29:29;8.70;99.90
4904;DHT22;2467;48.142;11.616;2024-03-02T03:30:01;8.70;99.90
4904;DHT22;2467;48.142;11.616;2024-03-02T03:30:34;8.70;99.90
4904;DHT22;2467;48.142;11.616;2024-03-02T03:31:07;8.70;99.90
4904;DHT22;2467;48.142;11.616;2024-03-02T03:31:39;8.70;99.90
4904;DHT22;2467;48.142;11.616;2024-03-02T03:32:11;8.60;99.90
4904;DHT22;2467;48.142;11.616;2024-03-02T03:32:44;8.60;99.90
4904;DHT22;2467;48.142;11.616;2024-03-02T03:33:17;8.60;99.90
4904;DHT22;2467;48.142;11.616;2024-03-02T03:33:49;8.70;99.90
4904;DHT22;2467;48.142;11.616;2024-03-02T03:34:21;8.70;99.90
4904;DHT22;2467;48.142;11.616;2024-03-02T03:34:53;8.70;99.90
4904;DHT22;2467;48.142;11.616;2024-03-02T03:35:26;8.70;99.90
4904;DHT22;2467;48.142;11.616;2024-03-02T03:35:58;8.70;99.90
4904;DHT22;2467;48.142;11.616;2024-03-02T03:36:30;8.70;99.90